Darling — VKV7143 — position and weather

sailwx.info

Track history (hours):
 
Tides and Currents Weather Stations Pressure Air Temp Water Temp Dewpoint Dewpoint Depression Visibility Wind Speed Wind Dir Waves Ship Positions

Darling

Last reported at 2018-Apr-21 01:56 UTC. Time now 2018-Apr-21 02:13 UTC.
Position S 32°53' E 151°46'.

Length 24 m; draft 5.8 m.

Type: Tug. MMSI: 503226300.

Date/timePositionNaut miles runAvg speedWind from/ knotsBaromVisibWave heightAir tempDewpointWater temp
2018-Apr-21 01:56S 32°53' E 151°46'2 4.7
2018-Apr-21 01:30S 32°55' E 151°46'0 0.1
2018-Apr-21 01:00S 32°55' E 151°46'0 0.0
2018-Apr-21 00:30S 32°55' E 151°46'0 0.0
2018-Apr-21 00:00S 32°55' E 151°46'0 0.0
2018-Apr-20 23:28S 32°55' E 151°46'0 0.0
2018-Apr-20 23:00S 32°55' E 151°46'0 0.0
2018-Apr-20 22:30S 32°55' E 151°46'0 0.0
2018-Apr-20 22:00S 32°55' E 151°46'0 0.0
2018-Apr-20 21:29S 32°55' E 151°46'0 0.0
2018-Apr-20 21:00S 32°55' E 151°46'0 0.0
2018-Apr-20 20:30S 32°55' E 151°46'0 0.0
2018-Apr-20 20:00S 32°55' E 151°46'2 3.5
2018-Apr-20 19:25S 32°53' E 151°46'1 1.5
2018-Apr-20 18:51S 32°54' E 151°46'2 4.0
2018-Apr-20 18:25S 32°55' E 151°48'1 2.1
2018-Apr-20 17:59S 32°55' E 151°47'0 0.0
2018-Apr-20 17:28S 32°55' E 151°47'1 1.9
2018-Apr-20 17:00S 32°55' E 151°46'2 3.1
2018-Apr-20 16:30S 32°53' E 151°46'1 0.8
2018-Apr-20 15:48S 32°53' E 151°45'0 1.0
2018-Apr-20 15:30S 32°53' E 151°46'1 1.8
2018-Apr-20 14:56S 32°54' E 151°46'2 3.4
2018-Apr-20 14:29S 32°55' E 151°47'0 0.4
2018-Apr-20 14:00S 32°55' E 151°47'0 0.9
2018-Apr-20 13:30S 32°55' E 151°48'2 3.2
2018-Apr-20 12:53S 32°54' E 151°46'1 2.7
2018-Apr-20 12:30S 32°53' E 151°45'1 1.7
2018-Apr-20 12:00S 32°53' E 151°46'2 3.8
2018-Apr-20 11:30S 32°55' E 151°46'0 0.0
2018-Apr-20 10:53S 32°55' E 151°46'0 0.0
2018-Apr-20 10:30S 32°55' E 151°46'0 0.0
2018-Apr-20 10:00S 32°55' E 151°46'0 0.0
2018-Apr-20 09:30S 32°55' E 151°46'0 0.0
2018-Apr-20 08:57S 32°55' E 151°46'0 0.0
2018-Apr-20 08:30S 32°55' E 151°46'0 0.0
2018-Apr-20 08:00S 32°55' E 151°46'0 0.0
2018-Apr-20 07:30S 32°55' E 151°46'2 1.8
2018-Apr-20 06:20S 32°53' E 151°46'1 2.0
2018-Apr-20 06:00S 32°54' E 151°46'2 4.1
2018-Apr-20 05:30S 32°55' E 151°49'1 2.3
2018-Apr-20 04:57S 32°55' E 151°47'2 3.5
2018-Apr-20 04:29S 32°54' E 151°46'1 0.7
2018-Apr-20 03:37S 32°53' E 151°46'1 7.6
2018-Apr-20 03:30S 32°54' E 151°46'1 2.4
2018-Apr-20 02:57S 32°55' E 151°46'0 0.0
2018-Apr-20 02:27S 32°55' E 151°46'0 0.0
2018-Apr-20 01:53S 32°55' E 151°46'0 0.0
2018-Apr-20 01:31S 32°55' E 151°46'0 0.0
2018-Apr-20 00:56S 32°55' E 151°46'1 2.1
2018-Apr-20 00:30S 32°55' E 151°47'1 2.2
2018-Apr-20 00:00S 32°54' E 151°46'0 0.0
2018-Apr-19 23:30S 32°54' E 151°46'1 2.0
2018-Apr-19 23:00S 32°55' E 151°46'0 0.0
2018-Apr-19 22:30S 32°55' E 151°46'1 2.5
2018-Apr-19 21:57S 32°55' E 151°48'1 2.3
2018-Apr-19 21:30S 32°55' E 151°46'0 0.0
2018-Apr-19 21:00S 32°55' E 151°46'1 1.1
2018-Apr-19 20:30S 32°55' E 151°46'0 0.0
2018-Apr-19 20:00S 32°55' E 151°46'0 0.0
2018-Apr-19 19:30S 32°55' E 151°46'1 2.1
2018-Apr-19 18:57S 32°54' E 151°46'0 0.1
2018-Apr-19 18:30S 32°54' E 151°46'2 3.2
2018-Apr-19 18:00S 32°55' E 151°48'1 1.3
2018-Apr-19 17:30S 32°55' E 151°47'1 2.7
2018-Apr-19 17:00S 32°54' E 151°46'0 0.1
2018-Apr-19 16:30S 32°54' E 151°46'1 2.5
2018-Apr-19 15:59S 32°55' E 151°47'2 3.5
2018-Apr-19 15:25S 32°53' E 151°46'0 0.4
2018-Apr-19 14:59S 32°53' E 151°46'0 1.0
2018-Apr-19 14:30S 32°53' E 151°46'0 0.9
2018-Apr-19 13:59S 32°53' E 151°45'1 1.3
2018-Apr-19 13:30S 32°53' E 151°46'2 3.7
2018-Apr-19 12:55S 32°55' E 151°48'1 1.2
2018-Apr-19 12:30S 32°55' E 151°47'1 2.8
2018-Apr-19 12:00S 32°54' E 151°46'1 2.5
2018-Apr-19 11:29S 32°53' E 151°45'1 2.4
2018-Apr-19 11:00S 32°54' E 151°46'1 2.8
2018-Apr-19 10:30S 32°55' E 151°46'0 0.0
2018-Apr-19 09:59S 32°55' E 151°46'1 1.1
2018-Apr-19 09:30S 32°55' E 151°47'2 3.1
2018-Apr-19 08:44S 32°53' E 151°46'0 0.2
2018-Apr-19 08:28S 32°53' E 151°46'0 0.2
2018-Apr-19 07:56S 32°53' E 151°46'0 0.2
2018-Apr-19 07:30S 32°53' E 151°46'0 0.1
2018-Apr-19 07:00S 32°53' E 151°46'0 0.5
2018-Apr-19 06:21S 32°53' E 151°45'1 2.4
2018-Apr-19 06:00S 32°54' E 151°46'2 3.7
2018-Apr-19 05:30S 32°55' E 151°48'0 0.1
2018-Apr-19 05:00S 32°55' E 151°48'2 3.4
2018-Apr-19 04:30S 32°55' E 151°46'0 0.0
2018-Apr-19 04:00S 32°55' E 151°46'0 0.0
2018-Apr-19 03:24S 32°55' E 151°46'0 0.0
2018-Apr-19 03:00S 32°55' E 151°46'0 0.0
2018-Apr-19 02:30S 32°55' E 151°46'0 0.0
2018-Apr-19 02:00S 32°55' E 151°46'0 0.0
2018-Apr-19 01:30S 32°55' E 151°46'0 0.0
2018-Apr-19 01:00S 32°55' E 151°46'0 0.0
2018-Apr-19 00:28S 32°55' E 151°46'2 1.3
2018-Apr-18 22:58S 32°53' E 151°46'0 0.4
2018-Apr-18 22:31S 32°54' E 151°46'2 3.6
2018-Apr-18 22:00S 32°55' E 151°47'1 1.5
2018-Apr-18 21:31S 32°55' E 151°46'0 0.3
2018-Apr-18 21:00S 32°55' E 151°46'0 0.0
2018-Apr-18 20:30S 32°55' E 151°46'0 0.0
2018-Apr-18 20:00S 32°55' E 151°46'0 0.0
2018-Apr-18 19:30S 32°55' E 151°46'0 0.0
2018-Apr-18 19:00S 32°55' E 151°46'1 2.0
2018-Apr-18 18:30S 32°54' E 151°46'1 1.6
2018-Apr-18 18:00S 32°54' E 151°46'2 3.8
2018-Apr-18 17:30S 32°55' E 151°48'0 0.0
2018-Apr-18 17:01S 32°55' E 151°48'1 2.2
2018-Apr-18 16:23S 32°54' E 151°46'0 0.2
2018-Apr-18 16:00S 32°54' E 151°46'0 0.2
2018-Apr-18 15:30S 32°54' E 151°46'2 1.5
2018-Apr-18 14:21S 32°55' E 151°48'1 2.9
2018-Apr-18 14:00S 32°55' E 151°47'1 2.2
2018-Apr-18 13:30S 32°55' E 151°46'0 0.0
2018-Apr-18 13:00S 32°55' E 151°46'0 0.0
2018-Apr-18 12:30S 32°55' E 151°46'2 3.0
2018-Apr-18 12:00S 32°55' E 151°48'1 2.7
2018-Apr-18 11:27S 32°54' E 151°46'1 2.4
2018-Apr-18 10:59S 32°53' E 151°46'0 0.5
2018-Apr-18 10:27S 32°53' E 151°45'3 5.5
2018-Apr-18 09:59S 32°55' E 151°46'0 0.3
2018-Apr-18 09:29S 32°55' E 151°46'0 0.0
2018-Apr-18 09:00S 32°55' E 151°46'0 0.0
2018-Apr-18 08:30S 32°55' E 151°46'2 2.9
2018-Apr-18 07:52S 32°53' E 151°46'0 0.8
2018-Apr-18 07:28S 32°53' E 151°46'2 3.2
2018-Apr-18 06:44S 32°55' E 151°48'1 2.3
2018-Apr-18 06:30S 32°55' E 151°48'2 3.6
2018-Apr-18 06:00S 32°55' E 151°46'0 0.0
2018-Apr-18 05:30S 32°55' E 151°46'0 0.0
2018-Apr-18 04:55S 32°55' E 151°46'0 0.0
2018-Apr-18 04:29S 32°55' E 151°46'0 0.0
2018-Apr-18 04:00S 32°55' E 151°46'2 2.0
2018-Apr-18 02:51S 32°53' E 151°45'1 2.5
2018-Apr-18 02:30S 32°54' E 151°46'2 3.7
2018-Apr-18 02:00S 32°55' E 151°48'1 1.2
2018-Apr-18 01:29S 32°55' E 151°47'1 2.1
2018-Apr-18 00:57S 32°55' E 151°46'0 0.0
2018-Apr-18 00:30S 32°55' E 151°46'0 0.0
2018-Apr-17 23:58S 32°55' E 151°46'0 0.2
2018-Apr-17 23:27S 32°55' E 151°46'0 0.2
2018-Apr-17 22:59S 32°55' E 151°46'0 0.0
2018-Apr-17 22:27S 32°55' E 151°46'0 0.0
2018-Apr-17 22:00S 32°55' E 151°46'0 0.0
2018-Apr-17 21:27S 32°55' E 151°46'0 0.0
2018-Apr-17 21:00S 32°55' E 151°46'0 0.0
2018-Apr-17 20:30S 32°55' E 151°46'0 0.0
2018-Apr-17 19:58S 32°55' E 151°46'0 0.0
2018-Apr-17 19:30S 32°55' E 151°46'0 0.0
2018-Apr-17 19:00S 32°55' E 151°46'0 0.0
2018-Apr-17 18:30S 32°55' E 151°46'2 3.0
2018-Apr-17 18:00S 32°55' E 151°48'1 2.7
2018-Apr-17 17:28S 32°54' E 151°46'1 2.3
2018-Apr-17 16:59S 32°53' E 151°46'0 0.2
2018-Apr-17 15:38S 32°53' E 151°46'0 0.0
2018-Apr-17 15:23S 32°53' E 151°46'0 0.0
2018-Apr-17 15:00S 32°53' E 151°46'0 0.0
2018-Apr-17 14:29S 32°53' E 151°46'0 0.0
2018-Apr-17 13:50S 32°53' E 151°46'0 0.0
2018-Apr-17 13:29S 32°53' E 151°46'0 0.0
2018-Apr-17 12:45S 32°53' E 151°46'2 6.2
2018-Apr-17 12:25S 32°55' E 151°47'1 1.8
2018-Apr-17 11:40S 32°54' E 151°46'1 3.3
2018-Apr-17 11:30S 32°53' E 151°46'0 0.3
2018-Apr-17 10:30S 32°53' E 151°46'2 3.9
2018-Apr-17 09:58S 32°55' E 151°46'0 0.0
2018-Apr-17 09:25S 32°55' E 151°46'0 0.0
2018-Apr-17 08:58S 32°55' E 151°46'0 0.0
2018-Apr-17 08:26S 32°55' E 151°46'0 0.0
2018-Apr-17 07:55S 32°55' E 151°46'1 1.1
2018-Apr-17 06:43S 32°54' E 151°46'1 4.5
2018-Apr-17 06:30S 32°55' E 151°47'0 0.9
2018-Apr-17 06:00S 32°55' E 151°47'1 1.5
2018-Apr-17 05:30S 32°55' E 151°46'2 1.3
2018-Apr-17 03:56S 32°53' E 151°46'1 2.7
2018-Apr-17 03:30S 32°55' E 151°46'1 2.4
2018-Apr-17 02:54S 32°55' E 151°48'1 3.0
2018-Apr-17 02:29S 32°55' E 151°47'2 3.4
2018-Apr-17 01:57S 32°53' E 151°46'1 1.2
2018-Apr-17 01:26S 32°53' E 151°45'1 0.8
2018-Apr-17 00:46S 32°53' E 151°46'0 0.8
2018-Apr-17 00:30S 32°53' E 151°46'1 1.3
2018-Apr-16 23:58S 32°54' E 151°46'2 3.7
2018-Apr-16 23:30S 32°55' E 151°48'2 3.7
2018-Apr-16 22:59S 32°55' E 151°46'1 1.0
2018-Apr-16 22:20S 32°55' E 151°46'1 2.8
2018-Apr-16 21:54S 32°54' E 151°46'0 0.6
2018-Apr-16 21:29S 32°53' E 151°46'2 3.9
2018-Apr-16 20:58S 32°55' E 151°46'0 0.0
2018-Apr-16 20:30S 32°55' E 151°46'0 0.0
2018-Apr-16 20:00S 32°55' E 151°46'0 0.0
2018-Apr-16 19:30S 32°55' E 151°46'0 0.0
2018-Apr-16 18:55S 32°55' E 151°46'0 0.0
2018-Apr-16 17:28S 32°55' E 151°46'0 0.0
2018-Apr-16 17:00S 32°55' E 151°46'0 0.0
2018-Apr-16 16:30S 32°55' E 151°46'1 2.5
2018-Apr-16 16:00S 32°54' E 151°46'1 0.9
2018-Apr-16 15:27S 32°54' E 151°46'2 4.0
2018-Apr-16 15:00S 32°55' E 151°48'1 2.8
2018-Apr-16 14:31S 32°55' E 151°46'0 0.0
2018-Apr-16 14:01S 32°55' E 151°46'0 0.0
2018-Apr-16 13:30S 32°55' E 151°46'0 0.0
2018-Apr-16 13:00S 32°55' E 151°46'0 0.0
2018-Apr-16 12:30S 32°55' E 151°46'0 0.0
2018-Apr-16 12:00S 32°55' E 151°46'0 0.0
2018-Apr-16 11:30S 32°55' E 151°46'0 0.0
2018-Apr-16 11:00S 32°55' E 151°46'1 1.5
2018-Apr-16 10:28S 32°55' E 151°47'1 1.3
2018-Apr-16 09:59S 32°55' E 151°46'1 2.7
2018-Apr-16 09:29S 32°54' E 151°46'0 0.5
2018-Apr-16 09:00S 32°53' E 151°46'0 1.0
2018-Apr-16 08:30S 32°54' E 151°46'0 0.0
2018-Apr-16 07:55S 32°54' E 151°46'1 1.4
2018-Apr-16 07:04S 32°53' E 151°45'0 2.1
2018-Apr-16 06:52S 32°53' E 151°46'1 2.3
2018-Apr-16 06:22S 32°54' E 151°46'2 3.8
2018-Apr-16 05:57S 32°55' E 151°48'1 2.0
2018-Apr-16 05:29S 32°55' E 151°47'2 1.8
2018-Apr-16 04:09S 32°53' E 151°46'2 8.4
2018-Apr-16 03:55S 32°55' E 151°47'1 1.2
2018-Apr-16 03:27S 32°55' E 151°46'0 0.0
2018-Apr-16 03:00S 32°55' E 151°46'0 0.5
2018-Apr-16 02:29S 32°55' E 151°46'0 0.1
2018-Apr-16 01:54S 32°55' E 151°46'0 0.5
2018-Apr-16 01:18S 32°55' E 151°46'0 0.0
2018-Apr-16 01:00S 32°55' E 151°46'0 0.0
2018-Apr-16 00:19S 32°55' E 151°46'0 0.0
2018-Apr-15 23:51S 32°55' E 151°46'0 0.0
2018-Apr-15 23:28S 32°55' E 151°46'0 0.0
2018-Apr-15 22:57S 32°55' E 151°46'0 0.0
2018-Apr-15 22:16S 32°55' E 151°46'0 0.0
2018-Apr-15 22:00S 32°55' E 151°46'2 2.9
2018-Apr-15 21:18S 32°53' E 151°46'0 0.9
2018-Apr-15 20:51S 32°53' E 151°45'1 2.5
2018-Apr-15 20:22S 32°54' E 151°46'2 4.0
2018-Apr-15 19:55S 32°55' E 151°48'2 4.8
2018-Apr-15 19:30S 32°55' E 151°46'0 0.0
2018-Apr-15 19:00S 32°55' E 151°46'0 0.0
2018-Apr-15 18:30S 32°55' E 151°46'0 0.0
2018-Apr-15 18:00S 32°55' E 151°46'0 0.0
2018-Apr-15 17:30S 32°55' E 151°46'0 0.0
2018-Apr-15 17:00S 32°55' E 151°46'0 0.0
2018-Apr-15 16:30S 32°55' E 151°46'0 0.0
2018-Apr-15 16:00S 32°55' E 151°46'0 0.0
2018-Apr-15 15:30S 32°55' E 151°46'0 0.0
2018-Apr-15 14:55S 32°55' E 151°46'0 0.0
2018-Apr-15 14:30S 32°55' E 151°46'0 0.0
2018-Apr-15 13:59S 32°55' E 151°46'0 0.0
2018-Apr-15 13:30S 32°55' E 151°46'0 0.0
2018-Apr-15 12:59S 32°55' E 151°46'1 1.3
2018-Apr-15 12:28S 32°55' E 151°47'3 3.7
2018-Apr-15 11:44S 32°53' E 151°45'1 2.5
2018-Apr-15 11:27S 32°53' E 151°46'2 3.2
2018-Apr-15 10:57S 32°55' E 151°46'1 2.8
2018-Apr-15 10:28S 32°55' E 151°48'1 2.3
2018-Apr-15 09:54S 32°55' E 151°46'1 3.0
2018-Apr-15 09:26S 32°54' E 151°46'0 0.7
2018-Apr-15 08:59S 32°53' E 151°46'0 0.4
2018-Apr-15 08:21S 32°53' E 151°46'2 4.7
2018-Apr-15 07:55S 32°55' E 151°46'0 0.9
2018-Apr-15 07:27S 32°55' E 151°46'0 0.0
2018-Apr-15 06:58S 32°55' E 151°46'0 0.0
2018-Apr-15 06:28S 32°55' E 151°46'0 0.0
2018-Apr-15 05:59S 32°55' E 151°46'0 0.0
2018-Apr-15 05:29S 32°55' E 151°46'0 0.0
2018-Apr-15 05:00S 32°55' E 151°46'0 0.0
2018-Apr-15 04:30S 32°55' E 151°46'0 0.0
2018-Apr-15 03:39S 32°55' E 151°46'0 0.0
2018-Apr-15 03:22S 32°55' E 151°46'0 0.0
2018-Apr-15 03:00S 32°55' E 151°46'0 0.0
2018-Apr-15 02:24S 32°55' E 151°46'2 2.0
2018-Apr-15 01:27S 32°53' E 151°46'2 3.9
2018-Apr-15 00:58S 32°55' E 151°47'2 3.9
2018-Apr-15 00:30S 32°55' E 151°49'2 2.5
2018-Apr-14 23:38S 32°54' E 151°46'0 1.6
2018-Apr-14 23:30S 32°53' E 151°46'0 0.1
2018-Apr-14 22:58S 32°53' E 151°46'1 1.9
2018-Apr-14 22:30S 32°53' E 151°45'1 1.8
2018-Apr-14 21:54S 32°54' E 151°46'2 3.6
2018-Apr-14 21:19S 32°55' E 151°48'0 1.1
2018-Apr-14 21:00S 32°55' E 151°48'2 3.7
2018-Apr-14 20:30S 32°55' E 151°46'0 0.0
2018-Apr-14 19:58S 32°55' E 151°46'0 0.0
2018-Apr-14 19:27S 32°55' E 151°46'0 0.0
2018-Apr-14 18:59S 32°55' E 151°46'0 0.0
2018-Apr-14 18:30S 32°55' E 151°46'0 0.0
2018-Apr-14 18:00S 32°55' E 151°46'0 0.0
2018-Apr-14 17:30S 32°55' E 151°46'0 0.0
2018-Apr-14 17:00S 32°55' E 151°46'0 0.0
2018-Apr-14 16:30S 32°55' E 151°46'0 0.0
2018-Apr-14 16:00S 32°55' E 151°46'0 0.0
2018-Apr-14 15:30S 32°55' E 151°46'0 0.0
2018-Apr-14 15:00S 32°55' E 151°46'0 0.0
2018-Apr-14 14:30S 32°55' E 151°46'0 0.0
2018-Apr-14 14:00S 32°55' E 151°46'2 3.3
2018-Apr-14 13:30S 32°55' E 151°48'2 3.0
2018-Apr-14 13:00S 32°54' E 151°46'1 1.2
2018-Apr-14 12:30S 32°54' E 151°46'1 1.2
2018-Apr-14 12:00S 32°54' E 151°46'0 0.3
2018-Apr-14 11:27S 32°54' E 151°46'2 3.7
2018-Apr-14 11:00S 32°55' E 151°48'0 0.3
2018-Apr-14 10:24S 32°55' E 151°48'2 2.8
2018-Apr-14 09:39S 32°53' E 151°46'0 0.8
2018-Apr-14 09:16S 32°53' E 151°46'0 0.3
2018-Apr-14 08:47S 32°53' E 151°46'1 1.3
2018-Apr-14 08:20S 32°54' E 151°46'2 5.1
2018-Apr-14 08:00S 32°55' E 151°46'0 0.0
2018-Apr-14 07:29S 32°55' E 151°46'0 0.0
2018-Apr-14 06:56S 32°55' E 151°46'0 0.0
2018-Apr-14 06:30S 32°55' E 151°46'0 0.3
2018-Apr-14 05:35S 32°55' E 151°46'1 7.3
2018-Apr-14 05:23S 32°55' E 151°48'2 3.0
2018-Apr-14 04:40S 32°53' E 151°46'0 0.3
2018-Apr-14 03:27S 32°53' E 151°46'2 2.7
2018-Apr-14 02:41S 32°55' E 151°46'0 0.0
2018-Apr-14 02:29S 32°55' E 151°46'0 0.5
2018-Apr-14 02:00S 32°55' E 151°46'3 4.3
2018-Apr-14 01:25S 32°55' E 151°49'4 4.7
2018-Apr-14 00:37S 32°53' E 151°45'1 2.4
2018-Apr-14 00:19S 32°53' E 151°46'1 2.5
2018-Apr-14 00:00S 32°54' E 151°46'2 3.7
2018-Apr-13 23:30S 32°55' E 151°48'2 3.8
2018-Apr-13 23:00S 32°55' E 151°46'0 0.0
2018-Apr-13 22:29S 32°55' E 151°46'0 0.0
2018-Apr-13 22:00S 32°55' E 151°46'2 4.3
2018-Apr-13 21:29S 32°53' E 151°45'0 0.7
2018-Apr-13 20:58S 32°53' E 151°46'2 3.3
2018-Apr-13 20:30S 32°55' E 151°46'2 3.6
2018-Apr-13 20:00S 32°55' E 151°49'2 4.4
2018-Apr-13 19:30S 32°55' E 151°46'0 0.0
2018-Apr-13 19:00S 32°55' E 151°46'0 0.0
2018-Apr-13 18:31S 32°55' E 151°46'0 0.0
2018-Apr-13 18:00S 32°55' E 151°46'1 2.9
2018-Apr-13 17:30S 32°55' E 151°48'1 2.8
2018-Apr-13 17:00S 32°54' E 151°46'1 2.2
2018-Apr-13 16:24S 32°53' E 151°45'1 1.4
2018-Apr-13 16:00S 32°54' E 151°46'0 0.0
2018-Apr-13 15:30S 32°53' E 151°46'0 0.0
2018-Apr-13 15:00S 32°53' E 151°46'0 0.0
2018-Apr-13 14:30S 32°53' E 151°46'1 2.5
2018-Apr-13 14:00S 32°55' E 151°46'0 0.4
2018-Apr-13 13:30S 32°55' E 151°46'1 2.4
2018-Apr-13 13:00S 32°55' E 151°48'1 1.1
2018-Apr-13 12:30S 32°55' E 151°47'0 0.9
2018-Apr-13 12:00S 32°55' E 151°47'2 4.9
2018-Apr-13 11:30S 32°53' E 151°46'1 2.6
2018-Apr-13 10:57S 32°55' E 151°46'1 3.4
2018-Apr-13 10:30S 32°55' E 151°48'2 3.8
2018-Apr-13 10:00S 32°55' E 151°46'0 0.0
2018-Apr-13 09:30S 32°55' E 151°46'0 0.0
2018-Apr-13 08:59S 32°55' E 151°46'0 0.0
2018-Apr-13 08:30S 32°55' E 151°46'2 4.1
2018-Apr-13 08:00S 32°53' E 151°46'1 1.9
2018-Apr-13 07:29S 32°54' E 151°46'2 3.2
2018-Apr-13 07:00S 32°55' E 151°48'2 3.4
2018-Apr-13 06:30S 32°55' E 151°46'2 2.9
2018-Apr-13 05:55S 32°55' E 151°48'1 2.4
2018-Apr-13 05:26S 32°55' E 151°47'0 0.5
2018-Apr-13 04:42S 32°55' E 151°46'0 2.1
2018-Apr-13 04:28S 32°55' E 151°46'0 0.0
2018-Apr-13 01:48S 32°55' E 151°46'0 0.0
2018-Apr-13 01:28S 32°55' E 151°46'0 0.0
2018-Apr-13 01:00S 32°55' E 151°46'0 0.6
2018-Apr-13 00:24S 32°55' E 151°46'0 0.0
2018-Apr-12 23:54S 32°55' E 151°46'2 1.7
2018-Apr-12 22:43S 32°53' E 151°46'1 3.1
2018-Apr-12 22:25S 32°54' E 151°46'2 4.0
2018-Apr-12 22:00S 32°55' E 151°48'2 4.0
2018-Apr-12 21:30S 32°55' E 151°46'0 0.1
2018-Apr-12 21:00S 32°55' E 151°46'0 0.0
2018-Apr-12 20:30S 32°55' E 151°46'0 0.0
2018-Apr-12 20:00S 32°55' E 151°46'0 0.0
2018-Apr-12 19:30S 32°55' E 151°46'0 0.0
2018-Apr-12 19:00S 32°55' E 151°46'0 0.0
2018-Apr-12 18:30S 32°55' E 151°46'0 0.0
2018-Apr-12 18:00S 32°55' E 151°46'0 0.0
2018-Apr-12 17:31S 32°55' E 151°46'0 0.0
2018-Apr-12 17:00S 32°55' E 151°46'0 0.0
2018-Apr-12 16:30S 32°55' E 151°46'0 0.0
2018-Apr-12 16:00S 32°55' E 151°46'0 0.0
2018-Apr-12 15:30S 32°55' E 151°46'0 0.0
2018-Apr-12 15:00S 32°55' E 151°46'0 0.0
2018-Apr-12 14:30S 32°55' E 151°46'0 0.0
2018-Apr-12 14:00S 32°55' E 151°46'0 0.0
2018-Apr-12 13:30S 32°55' E 151°46'0 0.0
2018-Apr-12 13:00S 32°55' E 151°46'0 0.0
2018-Apr-12 12:30S 32°55' E 151°46'0 0.0
2018-Apr-12 12:00S 32°55' E 151°46'0 0.0
2018-Apr-12 11:30S 32°55' E 151°46'0 0.0
2018-Apr-12 11:00S 32°55' E 151°46'0 0.0
2018-Apr-12 10:30S 32°55' E 151°46'0 0.0
2018-Apr-12 10:00S 32°55' E 151°46'0 0.0
2018-Apr-12 09:30S 32°55' E 151°46'0 0.0
2018-Apr-12 09:00S 32°55' E 151°46'0 0.0
2018-Apr-12 08:30S 32°55' E 151°46'0 0.0
2018-Apr-12 08:00S 32°55' E 151°46'0 0.0
2018-Apr-12 07:30S 32°55' E 151°46'0 0.0
2018-Apr-12 07:00S 32°55' E 151°46'0 0.0
2018-Apr-12 06:29S 32°55' E 151°46'0 0.0
2018-Apr-12 05:57S 32°55' E 151°46'0 0.0
2018-Apr-12 05:26S 32°55' E 151°46'0 0.0
2018-Apr-12 05:00S 32°55' E 151°46'0 0.0
2018-Apr-12 04:30S 32°55' E 151°46'0 0.0
2018-Apr-12 04:00S 32°55' E 151°46'0 0.0
2018-Apr-12 03:12S 32°55' E 151°46'0 0.0
2018-Apr-12 02:44S 32°55' E 151°46'2 2.4
2018-Apr-12 01:51S 32°53' E 151°46'1 3.9
2018-Apr-12 01:30S 32°55' E 151°46'2 5.1
2018-Apr-12 01:00S 32°55' E 151°49'2 4.7
2018-Apr-12 00:29S 32°55' E 151°47'0 0.8
2018-Apr-11 23:56S 32°55' E 151°46'2 5.7
2018-Apr-11 23:29S 32°53' E 151°45'1 1.4
2018-Apr-11 23:00S 32°53' E 151°46'2 3.7
2018-Apr-11 22:30S 32°55' E 151°47'1 2.7
2018-Apr-11 22:00S 32°55' E 151°48'1 2.2
2018-Apr-11 21:30S 32°55' E 151°47'2 4.2
2018-Apr-11 21:00S 32°53' E 151°46'0 0.7
2018-Apr-11 20:24S 32°53' E 151°45'2 5.5
2018-Apr-11 19:59S 32°55' E 151°46'0 0.0
2018-Apr-11 19:30S 32°55' E 151°46'0 0.0
2018-Apr-11 19:00S 32°55' E 151°46'0 0.0
2018-Apr-11 18:30S 32°55' E 151°46'0 0.0
2018-Apr-11 18:00S 32°55' E 151°46'0 0.0
2018-Apr-11 17:31S 32°55' E 151°46'0 0.0
2018-Apr-11 17:00S 32°55' E 151°46'0 0.0
2018-Apr-11 16:30S 32°55' E 151°46'0 0.0
2018-Apr-11 16:00S 32°55' E 151°46'0 0.0
2018-Apr-11 15:30S 32°55' E 151°46'0 0.0
2018-Apr-11 15:00S 32°55' E 151°46'0 0.0
2018-Apr-11 14:30S 32°55' E 151°46'0 0.0
2018-Apr-11 14:00S 32°55' E 151°46'0 0.0
2018-Apr-11 13:30S 32°55' E 151°46'0 0.0
2018-Apr-11 13:00S 32°55' E 151°46'0 0.0
2018-Apr-11 12:29S 32°55' E 151°46'0 0.0
2018-Apr-11 11:59S 32°55' E 151°46'0 0.0
2018-Apr-11 11:30S 32°55' E 151°46'0 0.0
2018-Apr-11 10:58S 32°55' E 151°46'0 0.0
2018-Apr-11 10:16S 32°55' E 151°46'0 0.0
2018-Apr-11 09:44S 32°55' E 151°46'0 0.0
2018-Apr-11 06:10S 32°55' E 151°46'1 5.1
2018-Apr-11 05:58S 32°54' E 151°46'1 2.0
2018-Apr-11 05:29S 32°53' E 151°46'2 4.6
2018-Apr-11 05:00S 32°55' E 151°48'2 2.6
2018-Apr-11 04:24S 32°54' E 151°46'1 1.1
2018-Apr-11 03:36S 32°53' E 151°46'2 8.1
2018-Apr-11 03:23S 32°55' E 151°47'  
Track history (hours):
 
Tides and Currents Weather Stations Pressure Air Temp Water Temp Dewpoint Dewpoint Depression Visibility Wind Speed Wind Dir Waves Ship Positions

Darling

Last reported at 2018-Apr-21 01:56 UTC. Time now 2018-Apr-21 02:13 UTC.
Position S 32°53' E 151°46'.

Length 24 m; draft 5.8 m.

Type: Tug. MMSI: 503226300.

Date/timePositionNaut miles runAvg speedWind from/ knotsBaromVisibWave heightAir tempDewpointWater temp
2018-Apr-21 01:56S 32°53' E 151°46'2 4.7
2018-Apr-21 01:30S 32°55' E 151°46'0 0.1
2018-Apr-21 01:00S 32°55' E 151°46'0 0.0
2018-Apr-21 00:30S 32°55' E 151°46'0 0.0
2018-Apr-21 00:00S 32°55' E 151°46'0 0.0
2018-Apr-20 23:28S 32°55' E 151°46'0 0.0
2018-Apr-20 23:00S 32°55' E 151°46'0 0.0
2018-Apr-20 22:30S 32°55' E 151°46'0 0.0
2018-Apr-20 22:00S 32°55' E 151°46'0 0.0
2018-Apr-20 21:29S 32°55' E 151°46'0 0.0
2018-Apr-20 21:00S 32°55' E 151°46'0 0.0
2018-Apr-20 20:30S 32°55' E 151°46'0 0.0
2018-Apr-20 20:00S 32°55' E 151°46'2 3.5
2018-Apr-20 19:25S 32°53' E 151°46'1 1.5
2018-Apr-20 18:51S 32°54' E 151°46'2 4.0
2018-Apr-20 18:25S 32°55' E 151°48'1 2.1
2018-Apr-20 17:59S 32°55' E 151°47'0 0.0
2018-Apr-20 17:28S 32°55' E 151°47'1 1.9
2018-Apr-20 17:00S 32°55' E 151°46'2 3.1
2018-Apr-20 16:30S 32°53' E 151°46'1 0.8
2018-Apr-20 15:48S 32°53' E 151°45'0 1.0
2018-Apr-20 15:30S 32°53' E 151°46'1 1.8
2018-Apr-20 14:56S 32°54' E 151°46'2 3.4
2018-Apr-20 14:29S 32°55' E 151°47'0 0.4
2018-Apr-20 14:00S 32°55' E 151°47'0 0.9
2018-Apr-20 13:30S 32°55' E 151°48'2 3.2
2018-Apr-20 12:53S 32°54' E 151°46'1 2.7
2018-Apr-20 12:30S 32°53' E 151°45'1 1.7
2018-Apr-20 12:00S 32°53' E 151°46'2 3.8
2018-Apr-20 11:30S 32°55' E 151°46'0 0.0
2018-Apr-20 10:53S 32°55' E 151°46'0 0.0
2018-Apr-20 10:30S 32°55' E 151°46'0 0.0
2018-Apr-20 10:00S 32°55' E 151°46'0 0.0
2018-Apr-20 09:30S 32°55' E 151°46'0 0.0
2018-Apr-20 08:57S 32°55' E 151°46'0 0.0
2018-Apr-20 08:30S 32°55' E 151°46'0 0.0
2018-Apr-20 08:00S 32°55' E 151°46'0 0.0
2018-Apr-20 07:30S 32°55' E 151°46'2 1.8
2018-Apr-20 06:20S 32°53' E 151°46'1 2.0
2018-Apr-20 06:00S 32°54' E 151°46'2 4.1
2018-Apr-20 05:30S 32°55' E 151°49'1 2.3
2018-Apr-20 04:57S 32°55' E 151°47'2 3.5
2018-Apr-20 04:29S 32°54' E 151°46'1 0.7
2018-Apr-20 03:37S 32°53' E 151°46'1 7.6
2018-Apr-20 03:30S 32°54' E 151°46'1 2.4
2018-Apr-20 02:57S 32°55' E 151°46'0 0.0
2018-Apr-20 02:27S 32°55' E 151°46'0 0.0
2018-Apr-20 01:53S 32°55' E 151°46'0 0.0
2018-Apr-20 01:31S 32°55' E 151°46'0 0.0
2018-Apr-20 00:56S 32°55' E 151°46'1 2.1
2018-Apr-20 00:30S 32°55' E 151°47'1 2.2
2018-Apr-20 00:00S 32°54' E 151°46'0 0.0
2018-Apr-19 23:30S 32°54' E 151°46'1 2.0
2018-Apr-19 23:00S 32°55' E 151°46'0 0.0
2018-Apr-19 22:30S 32°55' E 151°46'1 2.5
2018-Apr-19 21:57S 32°55' E 151°48'1 2.3
2018-Apr-19 21:30S 32°55' E 151°46'0 0.0
2018-Apr-19 21:00S 32°55' E 151°46'1 1.1
2018-Apr-19 20:30S 32°55' E 151°46'0 0.0
2018-Apr-19 20:00S 32°55' E 151°46'0 0.0
2018-Apr-19 19:30S 32°55' E 151°46'1 2.1
2018-Apr-19 18:57S 32°54' E 151°46'0 0.1
2018-Apr-19 18:30S 32°54' E 151°46'2 3.2
2018-Apr-19 18:00S 32°55' E 151°48'1 1.3
2018-Apr-19 17:30S 32°55' E 151°47'1 2.7
2018-Apr-19 17:00S 32°54' E 151°46'0 0.1
2018-Apr-19 16:30S 32°54' E 151°46'1 2.5
2018-Apr-19 15:59S 32°55' E 151°47'2 3.5
2018-Apr-19 15:25S 32°53' E 151°46'0 0.4
2018-Apr-19 14:59S 32°53' E 151°46'0 1.0
2018-Apr-19 14:30S 32°53' E 151°46'0 0.9
2018-Apr-19 13:59S 32°53' E 151°45'1 1.3
2018-Apr-19 13:30S 32°53' E 151°46'2 3.7
2018-Apr-19 12:55S 32°55' E 151°48'1 1.2
2018-Apr-19 12:30S 32°55' E 151°47'1 2.8
2018-Apr-19 12:00S 32°54' E 151°46'1 2.5
2018-Apr-19 11:29S 32°53' E 151°45'1 2.4
2018-Apr-19 11:00S 32°54' E 151°46'1 2.8
2018-Apr-19 10:30S 32°55' E 151°46'0 0.0
2018-Apr-19 09:59S 32°55' E 151°46'1 1.1
2018-Apr-19 09:30S 32°55' E 151°47'2 3.1
2018-Apr-19 08:44S 32°53' E 151°46'0 0.2
2018-Apr-19 08:28S 32°53' E 151°46'0 0.2
2018-Apr-19 07:56S 32°53' E 151°46'0 0.2
2018-Apr-19 07:30S 32°53' E 151°46'0 0.1
2018-Apr-19 07:00S 32°53' E 151°46'0 0.5
2018-Apr-19 06:21S 32°53' E 151°45'1 2.4
2018-Apr-19 06:00S 32°54' E 151°46'2 3.7
2018-Apr-19 05:30S 32°55' E 151°48'0 0.1
2018-Apr-19 05:00S 32°55' E 151°48'2 3.4
2018-Apr-19 04:30S 32°55' E 151°46'0 0.0
2018-Apr-19 04:00S 32°55' E 151°46'0 0.0
2018-Apr-19 03:24S 32°55' E 151°46'0 0.0
2018-Apr-19 03:00S 32°55' E 151°46'0 0.0
2018-Apr-19 02:30S 32°55' E 151°46'0 0.0
2018-Apr-19 02:00S 32°55' E 151°46'0 0.0
2018-Apr-19 01:30S 32°55' E 151°46'0 0.0
2018-Apr-19 01:00S 32°55' E 151°46'0 0.0
2018-Apr-19 00:28S 32°55' E 151°46'2 1.3
2018-Apr-18 22:58S 32°53' E 151°46'0 0.4
2018-Apr-18 22:31S 32°54' E 151°46'2 3.6
2018-Apr-18 22:00S 32°55' E 151°47'1 1.5
2018-Apr-18 21:31S 32°55' E 151°46'0 0.3
2018-Apr-18 21:00S 32°55' E 151°46'0 0.0
2018-Apr-18 20:30S 32°55' E 151°46'0 0.0
2018-Apr-18 20:00S 32°55' E 151°46'0 0.0
2018-Apr-18 19:30S 32°55' E 151°46'0 0.0
2018-Apr-18 19:00S 32°55' E 151°46'1 2.0
2018-Apr-18 18:30S 32°54' E 151°46'1 1.6
2018-Apr-18 18:00S 32°54' E 151°46'2 3.8
2018-Apr-18 17:30S 32°55' E 151°48'0 0.0
2018-Apr-18 17:01S 32°55' E 151°48'1 2.2
2018-Apr-18 16:23S 32°54' E 151°46'0 0.2
2018-Apr-18 16:00S 32°54' E 151°46'0 0.2
2018-Apr-18 15:30S 32°54' E 151°46'2 1.5
2018-Apr-18 14:21S 32°55' E 151°48'1 2.9
2018-Apr-18 14:00S 32°55' E 151°47'1 2.2
2018-Apr-18 13:30S 32°55' E 151°46'0 0.0
2018-Apr-18 13:00S 32°55' E 151°46'0 0.0
2018-Apr-18 12:30S 32°55' E 151°46'2 3.0
2018-Apr-18 12:00S 32°55' E 151°48'1 2.7
2018-Apr-18 11:27S 32°54' E 151°46'1 2.4
2018-Apr-18 10:59S 32°53' E 151°46'0 0.5
2018-Apr-18 10:27S 32°53' E 151°45'3 5.5
2018-Apr-18 09:59S 32°55' E 151°46'0 0.3
2018-Apr-18 09:29S 32°55' E 151°46'0 0.0
2018-Apr-18 09:00S 32°55' E 151°46'0 0.0
2018-Apr-18 08:30S 32°55' E 151°46'2 2.9
2018-Apr-18 07:52S 32°53' E 151°46'0 0.8
2018-Apr-18 07:28S 32°53' E 151°46'2 3.2
2018-Apr-18 06:44S 32°55' E 151°48'1 2.3
2018-Apr-18 06:30S 32°55' E 151°48'2 3.6
2018-Apr-18 06:00S 32°55' E 151°46'0 0.0
2018-Apr-18 05:30S 32°55' E 151°46'0 0.0
2018-Apr-18 04:55S 32°55' E 151°46'0 0.0
2018-Apr-18 04:29S 32°55' E 151°46'0 0.0
2018-Apr-18 04:00S 32°55' E 151°46'2 2.0
2018-Apr-18 02:51S 32°53' E 151°45'1 2.5
2018-Apr-18 02:30S 32°54' E 151°46'2 3.7
2018-Apr-18 02:00S 32°55' E 151°48'1 1.2
2018-Apr-18 01:29S 32°55' E 151°47'1 2.1
2018-Apr-18 00:57S 32°55' E 151°46'0 0.0
2018-Apr-18 00:30S 32°55' E 151°46'0 0.0
2018-Apr-17 23:58S 32°55' E 151°46'0 0.2
2018-Apr-17 23:27S 32°55' E 151°46'0 0.2
2018-Apr-17 22:59S 32°55' E 151°46'0 0.0
2018-Apr-17 22:27S 32°55' E 151°46'0 0.0
2018-Apr-17 22:00S 32°55' E 151°46'0 0.0
2018-Apr-17 21:27S 32°55' E 151°46'0 0.0
2018-Apr-17 21:00S 32°55' E 151°46'0 0.0
2018-Apr-17 20:30S 32°55' E 151°46'0 0.0
2018-Apr-17 19:58S 32°55' E 151°46'0 0.0
2018-Apr-17 19:30S 32°55' E 151°46'0 0.0
2018-Apr-17 19:00S 32°55' E 151°46'0 0.0
2018-Apr-17 18:30S 32°55' E 151°46'2 3.0
2018-Apr-17 18:00S 32°55' E 151°48'1 2.7
2018-Apr-17 17:28S 32°54' E 151°46'1 2.3
2018-Apr-17 16:59S 32°53' E 151°46'0 0.2
2018-Apr-17 15:38S 32°53' E 151°46'0 0.0
2018-Apr-17 15:23S 32°53' E 151°46'0 0.0
2018-Apr-17 15:00S 32°53' E 151°46'0 0.0
2018-Apr-17 14:29S 32°53' E 151°46'0 0.0
2018-Apr-17 13:50S 32°53' E 151°46'0 0.0
2018-Apr-17 13:29S 32°53' E 151°46'0 0.0
2018-Apr-17 12:45S 32°53' E 151°46'2 6.2
2018-Apr-17 12:25S 32°55' E 151°47'1 1.8
2018-Apr-17 11:40S 32°54' E 151°46'1 3.3
2018-Apr-17 11:30S 32°53' E 151°46'0 0.3
2018-Apr-17 10:30S 32°53' E 151°46'2 3.9
2018-Apr-17 09:58S 32°55' E 151°46'0 0.0
2018-Apr-17 09:25S 32°55' E 151°46'0 0.0
2018-Apr-17 08:58S 32°55' E 151°46'0 0.0
2018-Apr-17 08:26S 32°55' E 151°46'0 0.0
2018-Apr-17 07:55S 32°55' E 151°46'1 1.1
2018-Apr-17 06:43S 32°54' E 151°46'1 4.5
2018-Apr-17 06:30S 32°55' E 151°47'0 0.9
2018-Apr-17 06:00S 32°55' E 151°47'1 1.5
2018-Apr-17 05:30S 32°55' E 151°46'2 1.3
2018-Apr-17 03:56S 32°53' E 151°46'1 2.7
2018-Apr-17 03:30S 32°55' E 151°46'1 2.4
2018-Apr-17 02:54S 32°55' E 151°48'1 3.0
2018-Apr-17 02:29S 32°55' E 151°47'2 3.4
2018-Apr-17 01:57S 32°53' E 151°46'1 1.2
2018-Apr-17 01:26S 32°53' E 151°45'1 0.8
2018-Apr-17 00:46S 32°53' E 151°46'0 0.8
2018-Apr-17 00:30S 32°53' E 151°46'1 1.3
2018-Apr-16 23:58S 32°54' E 151°46'2 3.7
2018-Apr-16 23:30S 32°55' E 151°48'2 3.7
2018-Apr-16 22:59S 32°55' E 151°46'1 1.0
2018-Apr-16 22:20S 32°55' E 151°46'1 2.8
2018-Apr-16 21:54S 32°54' E 151°46'0 0.6
2018-Apr-16 21:29S 32°53' E 151°46'2 3.9
2018-Apr-16 20:58S 32°55' E 151°46'0 0.0
2018-Apr-16 20:30S 32°55' E 151°46'0 0.0
2018-Apr-16 20:00S 32°55' E 151°46'0 0.0
2018-Apr-16 19:30S 32°55' E 151°46'0 0.0
2018-Apr-16 18:55S 32°55' E 151°46'0 0.0
2018-Apr-16 17:28S 32°55' E 151°46'0 0.0
2018-Apr-16 17:00S 32°55' E 151°46'0 0.0
2018-Apr-16 16:30S 32°55' E 151°46'1 2.5
2018-Apr-16 16:00S 32°54' E 151°46'1 0.9
2018-Apr-16 15:27S 32°54' E 151°46'2 4.0
2018-Apr-16 15:00S 32°55' E 151°48'1 2.8
2018-Apr-16 14:31S 32°55' E 151°46'0 0.0
2018-Apr-16 14:01S 32°55' E 151°46'0 0.0
2018-Apr-16 13:30S 32°55' E 151°46'0 0.0
2018-Apr-16 13:00S 32°55' E 151°46'0 0.0
2018-Apr-16 12:30S 32°55' E 151°46'0 0.0
2018-Apr-16 12:00S 32°55' E 151°46'0 0.0
2018-Apr-16 11:30S 32°55' E 151°46'0 0.0
2018-Apr-16 11:00S 32°55' E 151°46'1 1.5
2018-Apr-16 10:28S 32°55' E 151°47'1 1.3
2018-Apr-16 09:59S 32°55' E 151°46'1 2.7
2018-Apr-16 09:29S 32°54' E 151°46'0 0.5
2018-Apr-16 09:00S 32°53' E 151°46'0 1.0
2018-Apr-16 08:30S 32°54' E 151°46'0 0.0
2018-Apr-16 07:55S 32°54' E 151°46'1 1.4
2018-Apr-16 07:04S 32°53' E 151°45'0 2.1
2018-Apr-16 06:52S 32°53' E 151°46'1 2.3
2018-Apr-16 06:22S 32°54' E 151°46'2 3.8
2018-Apr-16 05:57S 32°55' E 151°48'1 2.0
2018-Apr-16 05:29S 32°55' E 151°47'2 1.8
2018-Apr-16 04:09S 32°53' E 151°46'2 8.4
2018-Apr-16 03:55S 32°55' E 151°47'1 1.2
2018-Apr-16 03:27S 32°55' E 151°46'0 0.0
2018-Apr-16 03:00S 32°55' E 151°46'0 0.5
2018-Apr-16 02:29S 32°55' E 151°46'0 0.1
2018-Apr-16 01:54S 32°55' E 151°46'0 0.5
2018-Apr-16 01:18S 32°55' E 151°46'0 0.0
2018-Apr-16 01:00S 32°55' E 151°46'0 0.0
2018-Apr-16 00:19S 32°55' E 151°46'0 0.0
2018-Apr-15 23:51S 32°55' E 151°46'0 0.0
2018-Apr-15 23:28S 32°55' E 151°46'0 0.0
2018-Apr-15 22:57S 32°55' E 151°46'0 0.0
2018-Apr-15 22:16S 32°55' E 151°46'0 0.0
2018-Apr-15 22:00S 32°55' E 151°46'2 2.9
2018-Apr-15 21:18S 32°53' E 151°46'0 0.9
2018-Apr-15 20:51S 32°53' E 151°45'1 2.5
2018-Apr-15 20:22S 32°54' E 151°46'2 4.0
2018-Apr-15 19:55S 32°55' E 151°48'2 4.8
2018-Apr-15 19:30S 32°55' E 151°46'0 0.0
2018-Apr-15 19:00S 32°55' E 151°46'0 0.0
2018-Apr-15 18:30S 32°55' E 151°46'0 0.0
2018-Apr-15 18:00S 32°55' E 151°46'0 0.0
2018-Apr-15 17:30S 32°55' E 151°46'0 0.0
2018-Apr-15 17:00S 32°55' E 151°46'0 0.0
2018-Apr-15 16:30S 32°55' E 151°46'0 0.0
2018-Apr-15 16:00S 32°55' E 151°46'0 0.0
2018-Apr-15 15:30S 32°55' E 151°46'0 0.0
2018-Apr-15 14:55S 32°55' E 151°46'0 0.0
2018-Apr-15 14:30S 32°55' E 151°46'0 0.0
2018-Apr-15 13:59S 32°55' E 151°46'0 0.0
2018-Apr-15 13:30S 32°55' E 151°46'0 0.0
2018-Apr-15 12:59S 32°55' E 151°46'1 1.3
2018-Apr-15 12:28S 32°55' E 151°47'3 3.7
2018-Apr-15 11:44S 32°53' E 151°45'1 2.5
2018-Apr-15 11:27S 32°53' E 151°46'2 3.2
2018-Apr-15 10:57S 32°55' E 151°46'1 2.8
2018-Apr-15 10:28S 32°55' E 151°48'1 2.3
2018-Apr-15 09:54S 32°55' E 151°46'1 3.0
2018-Apr-15 09:26S 32°54' E 151°46'0 0.7
2018-Apr-15 08:59S 32°53' E 151°46'0 0.4
2018-Apr-15 08:21S 32°53' E 151°46'2 4.7
2018-Apr-15 07:55S 32°55' E 151°46'0 0.9
2018-Apr-15 07:27S 32°55' E 151°46'0 0.0
2018-Apr-15 06:58S 32°55' E 151°46'0 0.0
2018-Apr-15 06:28S 32°55' E 151°46'0 0.0
2018-Apr-15 05:59S 32°55' E 151°46'0 0.0
2018-Apr-15 05:29S 32°55' E 151°46'0 0.0
2018-Apr-15 05:00S 32°55' E 151°46'0 0.0
2018-Apr-15 04:30S 32°55' E 151°46'0 0.0
2018-Apr-15 03:39S 32°55' E 151°46'0 0.0
2018-Apr-15 03:22S 32°55' E 151°46'0 0.0
2018-Apr-15 03:00S 32°55' E 151°46'0 0.0
2018-Apr-15 02:24S 32°55' E 151°46'2 2.0
2018-Apr-15 01:27S 32°53' E 151°46'2 3.9
2018-Apr-15 00:58S 32°55' E 151°47'2 3.9
2018-Apr-15 00:30S 32°55' E 151°49'2 2.5
2018-Apr-14 23:38S 32°54' E 151°46'0 1.6
2018-Apr-14 23:30S 32°53' E 151°46'0 0.1
2018-Apr-14 22:58S 32°53' E 151°46'1 1.9
2018-Apr-14 22:30S 32°53' E 151°45'1 1.8
2018-Apr-14 21:54S 32°54' E 151°46'2 3.6
2018-Apr-14 21:19S 32°55' E 151°48'0 1.1
2018-Apr-14 21:00S 32°55' E 151°48'2 3.7
2018-Apr-14 20:30S 32°55' E 151°46'0 0.0
2018-Apr-14 19:58S 32°55' E 151°46'0 0.0
2018-Apr-14 19:27S 32°55' E 151°46'0 0.0
2018-Apr-14 18:59S 32°55' E 151°46'0 0.0
2018-Apr-14 18:30S 32°55' E 151°46'0 0.0
2018-Apr-14 18:00S 32°55' E 151°46'0 0.0
2018-Apr-14 17:30S 32°55' E 151°46'0 0.0
2018-Apr-14 17:00S 32°55' E 151°46'0 0.0
2018-Apr-14 16:30S 32°55' E 151°46'0 0.0
2018-Apr-14 16:00S 32°55' E 151°46'0 0.0
2018-Apr-14 15:30S 32°55' E 151°46'0 0.0
2018-Apr-14 15:00S 32°55' E 151°46'0 0.0
2018-Apr-14 14:30S 32°55' E 151°46'0 0.0
2018-Apr-14 14:00S 32°55' E 151°46'2 3.3
2018-Apr-14 13:30S 32°55' E 151°48'2 3.0
2018-Apr-14 13:00S 32°54' E 151°46'1 1.2
2018-Apr-14 12:30S 32°54' E 151°46'1 1.2
2018-Apr-14 12:00S 32°54' E 151°46'0 0.3
2018-Apr-14 11:27S 32°54' E 151°46'2 3.7
2018-Apr-14 11:00S 32°55' E 151°48'0 0.3
2018-Apr-14 10:24S 32°55' E 151°48'2 2.8
2018-Apr-14 09:39S 32°53' E 151°46'0 0.8
2018-Apr-14 09:16S 32°53' E 151°46'0 0.3
2018-Apr-14 08:47S 32°53' E 151°46'1 1.3
2018-Apr-14 08:20S 32°54' E 151°46'2 5.1
2018-Apr-14 08:00S 32°55' E 151°46'0 0.0
2018-Apr-14 07:29S 32°55' E 151°46'0 0.0
2018-Apr-14 06:56S 32°55' E 151°46'0 0.0
2018-Apr-14 06:30S 32°55' E 151°46'0 0.3
2018-Apr-14 05:35S 32°55' E 151°46'1 7.3
2018-Apr-14 05:23S 32°55' E 151°48'2 3.0
2018-Apr-14 04:40S 32°53' E 151°46'0 0.3
2018-Apr-14 03:27S 32°53' E 151°46'2 2.7
2018-Apr-14 02:41S 32°55' E 151°46'0 0.0
2018-Apr-14 02:29S 32°55' E 151°46'0 0.5
2018-Apr-14 02:00S 32°55' E 151°46'3 4.3
2018-Apr-14 01:25S 32°55' E 151°49'4 4.7
2018-Apr-14 00:37S 32°53' E 151°45'1 2.4
2018-Apr-14 00:19S 32°53' E 151°46'1 2.5
2018-Apr-14 00:00S 32°54' E 151°46'2 3.7
2018-Apr-13 23:30S 32°55' E 151°48'2 3.8
2018-Apr-13 23:00S 32°55' E 151°46'0 0.0
2018-Apr-13 22:29S 32°55' E 151°46'0 0.0
2018-Apr-13 22:00S 32°55' E 151°46'2 4.3
2018-Apr-13 21:29S 32°53' E 151°45'0 0.7
2018-Apr-13 20:58S 32°53' E 151°46'2 3.3
2018-Apr-13 20:30S 32°55' E 151°46'2 3.6
2018-Apr-13 20:00S 32°55' E 151°49'2 4.4
2018-Apr-13 19:30S 32°55' E 151°46'0 0.0
2018-Apr-13 19:00S 32°55' E 151°46'0 0.0
2018-Apr-13 18:31S 32°55' E 151°46'0 0.0
2018-Apr-13 18:00S 32°55' E 151°46'1 2.9
2018-Apr-13 17:30S 32°55' E 151°48'1 2.8
2018-Apr-13 17:00S 32°54' E 151°46'1 2.2
2018-Apr-13 16:24S 32°53' E 151°45'1 1.4
2018-Apr-13 16:00S 32°54' E 151°46'0 0.0
2018-Apr-13 15:30S 32°53' E 151°46'0 0.0
2018-Apr-13 15:00S 32°53' E 151°46'0 0.0
2018-Apr-13 14:30S 32°53' E 151°46'1 2.5
2018-Apr-13 14:00S 32°55' E 151°46'0 0.4
2018-Apr-13 13:30S 32°55' E 151°46'1 2.4
2018-Apr-13 13:00S 32°55' E 151°48'1 1.1
2018-Apr-13 12:30S 32°55' E 151°47'0 0.9
2018-Apr-13 12:00S 32°55' E 151°47'2 4.9
2018-Apr-13 11:30S 32°53' E 151°46'1 2.6
2018-Apr-13 10:57S 32°55' E 151°46'1 3.4
2018-Apr-13 10:30S 32°55' E 151°48'2 3.8
2018-Apr-13 10:00S 32°55' E 151°46'0 0.0
2018-Apr-13 09:30S 32°55' E 151°46'0 0.0
2018-Apr-13 08:59S 32°55' E 151°46'0 0.0
2018-Apr-13 08:30S 32°55' E 151°46'2 4.1
2018-Apr-13 08:00S 32°53' E 151°46'1 1.9
2018-Apr-13 07:29S 32°54' E 151°46'2 3.2
2018-Apr-13 07:00S 32°55' E 151°48'2 3.4
2018-Apr-13 06:30S 32°55' E 151°46'2 2.9
2018-Apr-13 05:55S 32°55' E 151°48'1 2.4
2018-Apr-13 05:26S 32°55' E 151°47'0 0.5
2018-Apr-13 04:42S 32°55' E 151°46'0 2.1
2018-Apr-13 04:28S 32°55' E 151°46'0 0.0
2018-Apr-13 01:48S 32°55' E 151°46'0 0.0
2018-Apr-13 01:28S 32°55' E 151°46'0 0.0
2018-Apr-13 01:00S 32°55' E 151°46'0 0.6
2018-Apr-13 00:24S 32°55' E 151°46'0 0.0
2018-Apr-12 23:54S 32°55' E 151°46'2 1.7
2018-Apr-12 22:43S 32°53' E 151°46'1 3.1
2018-Apr-12 22:25S 32°54' E 151°46'2 4.0
2018-Apr-12 22:00S 32°55' E 151°48'2 4.0
2018-Apr-12 21:30S 32°55' E 151°46'0 0.1
2018-Apr-12 21:00S 32°55' E 151°46'0 0.0
2018-Apr-12 20:30S 32°55' E 151°46'0 0.0
2018-Apr-12 20:00S 32°55' E 151°46'0 0.0
2018-Apr-12 19:30S 32°55' E 151°46'0 0.0
2018-Apr-12 19:00S 32°55' E 151°46'0 0.0
2018-Apr-12 18:30S 32°55' E 151°46'0 0.0
2018-Apr-12 18:00S 32°55' E 151°46'0 0.0
2018-Apr-12 17:31S 32°55' E 151°46'0 0.0
2018-Apr-12 17:00S 32°55' E 151°46'0 0.0
2018-Apr-12 16:30S 32°55' E 151°46'0 0.0
2018-Apr-12 16:00S 32°55' E 151°46'0 0.0
2018-Apr-12 15:30S 32°55' E 151°46'0 0.0
2018-Apr-12 15:00S 32°55' E 151°46'0 0.0
2018-Apr-12 14:30S 32°55' E 151°46'0 0.0
2018-Apr-12 14:00S 32°55' E 151°46'0 0.0
2018-Apr-12 13:30S 32°55' E 151°46'0 0.0
2018-Apr-12 13:00S 32°55' E 151°46'0 0.0
2018-Apr-12 12:30S 32°55' E 151°46'0 0.0
2018-Apr-12 12:00S 32°55' E 151°46'0 0.0
2018-Apr-12 11:30S 32°55' E 151°46'0 0.0
2018-Apr-12 11:00S 32°55' E 151°46'0 0.0
2018-Apr-12 10:30S 32°55' E 151°46'0 0.0
2018-Apr-12 10:00S 32°55' E 151°46'0 0.0
2018-Apr-12 09:30S 32°55' E 151°46'0 0.0
2018-Apr-12 09:00S 32°55' E 151°46'0 0.0
2018-Apr-12 08:30S 32°55' E 151°46'0 0.0
2018-Apr-12 08:00S 32°55' E 151°46'0 0.0
2018-Apr-12 07:30S 32°55' E 151°46'0 0.0
2018-Apr-12 07:00S 32°55' E 151°46'0 0.0
2018-Apr-12 06:29S 32°55' E 151°46'0 0.0
2018-Apr-12 05:57S 32°55' E 151°46'0 0.0
2018-Apr-12 05:26S 32°55' E 151°46'0 0.0
2018-Apr-12 05:00S 32°55' E 151°46'0 0.0
2018-Apr-12 04:30S 32°55' E 151°46'0 0.0
2018-Apr-12 04:00S 32°55' E 151°46'0 0.0
2018-Apr-12 03:12S 32°55' E 151°46'0 0.0
2018-Apr-12 02:44S 32°55' E 151°46'2 2.4
2018-Apr-12 01:51S 32°53' E 151°46'1 3.9
2018-Apr-12 01:30S 32°55' E 151°46'2 5.1
2018-Apr-12 01:00S 32°55' E 151°49'2 4.7
2018-Apr-12 00:29S 32°55' E 151°47'0 0.8
2018-Apr-11 23:56S 32°55' E 151°46'2 5.7
2018-Apr-11 23:29S 32°53' E 151°45'1 1.4
2018-Apr-11 23:00S 32°53' E 151°46'2 3.7
2018-Apr-11 22:30S 32°55' E 151°47'1 2.7
2018-Apr-11 22:00S 32°55' E 151°48'1 2.2
2018-Apr-11 21:30S 32°55' E 151°47'2 4.2
2018-Apr-11 21:00S 32°53' E 151°46'0 0.7
2018-Apr-11 20:24S 32°53' E 151°45'2 5.5
2018-Apr-11 19:59S 32°55' E 151°46'0 0.0
2018-Apr-11 19:30S 32°55' E 151°46'0 0.0
2018-Apr-11 19:00S 32°55' E 151°46'0 0.0
2018-Apr-11 18:30S 32°55' E 151°46'0 0.0
2018-Apr-11 18:00S 32°55' E 151°46'0 0.0
2018-Apr-11 17:31S 32°55' E 151°46'0 0.0
2018-Apr-11 17:00S 32°55' E 151°46'0 0.0
2018-Apr-11 16:30S 32°55' E 151°46'0 0.0
2018-Apr-11 16:00S 32°55' E 151°46'0 0.0
2018-Apr-11 15:30S 32°55' E 151°46'0 0.0
2018-Apr-11 15:00S 32°55' E 151°46'0 0.0
2018-Apr-11 14:30S 32°55' E 151°46'0 0.0
2018-Apr-11 14:00S 32°55' E 151°46'0 0.0
2018-Apr-11 13:30S 32°55' E 151°46'0 0.0
2018-Apr-11 13:00S 32°55' E 151°46'0 0.0
2018-Apr-11 12:29S 32°55' E 151°46'0 0.0
2018-Apr-11 11:59S 32°55' E 151°46'0 0.0
2018-Apr-11 11:30S 32°55' E 151°46'0 0.0
2018-Apr-11 10:58S 32°55' E 151°46'0 0.0
2018-Apr-11 10:16S 32°55' E 151°46'0 0.0
2018-Apr-11 09:44S 32°55' E 151°46'0 0.0
2018-Apr-11 06:10S 32°55' E 151°46'1 5.1
2018-Apr-11 05:58S 32°54' E 151°46'1 2.0
2018-Apr-11 05:29S 32°53' E 151°46'2 4.6
2018-Apr-11 05:00S 32°55' E 151°48'2 2.6
2018-Apr-11 04:24S 32°54' E 151°46'1 1.1
2018-Apr-11 03:36S 32°53' E 151°46'2 8.1
2018-Apr-11 03:23S 32°55' E 151°47'  

Dump ship's entire track history